Aérodrome :
LOGIN :

S'inscrire | Disclaimer

   EN    FR    IT 

 










Légende :    VFR   VFR Marginal   IFR   IFR Intensif   IFR Très Intensif
Visi : 
Plafond : 
>= 8 km
>= 3000ft
5 à 8 km
1000 à 3000 ft
1500m à 5 km
500 à 1000 ft
800 à 1500m
200 à 500 ft
< 800m
< 200 ft
Symboles :   Orages  Brouillard  Fortes neiges  Fortes précipitations  Vent > 20 kt
SIGMETs :   Divers  Orages  Givrage  Turbulence  Onde Orograph.  Cendres Volcan.






- Altitude de l'aérodrome : 915 ft
- Code IATA : LUG


LSZA - Lugano

DERNIER METAR :
  • 221150Z 19004KT 150V220 9999 FEW045 21/16 Q1023 NOSIG

METARs EXPIRÉS :
  • 221120Z 19004KT 120V220 9999 FEW045 21/17 Q1024 NOSIG
  • 221050Z 19005KT 9999 FEW045 20/16 Q1024 NOSIG
  • 221020Z 19004KT 160V220 9999 FEW015 19/16 Q1024 NOSIG
  • 220950Z 20003KT 170V230 9999 FEW015 19/16 Q1024 NOSIG
  • 220920Z VRB02KT 9999 FEW015 18/16 Q1025 NOSIG

TAF TAF LSZA
Valide du 22 à 12h jusqu'au 22 à 21h UTC


221125Z 2212/2221 19004KT 9999 FEW045
ATIS : +41 22 417 40 88



MET'MAP, la Météo Aéronautique d'un coup d'oeil ! - Copyright ORBIFLY Décembre 2007 - Disclaimer

ORBIFLY MET'MAP TEAM :

Programmation & Développement : Alexandra Zaïnal
Conception & Développement : Baudouin d'Aumeries
Co-Programmation & Développement : Marc-Olivier Méhu
Soutien technique & logistique : Manuel Goepfert

Contact : metmap@orbifly.com




SOURCES & CREDITS :

   NOAA